KGTR/GTR METAR and TAF weather

Enter ICAO airport designator
Station Type Date Time Source
KGTR METAR 2020/07/15 00:56 UTC NOAA

KGTR 150056Z 07004KT 10SM CLR 31/24 A2999 RMK AO2 SLP160 T03060239 PNO $


Station Type Date Time Source
KGTR Decoded METAR 2020/07/15 00:56 UTC NOAA

Columbus/West Point/Starkville, Golden Triangle Regional Airport, MS, United States (KGTR) 33-27N 088-35W
Jul 14, 2020 - 08:56 PM EDT / 2020.07.15 0056 UTC
Wind: from the ENE (070 degrees) at 5 MPH (4 KT):0
Visibility: 10 mile(s):0
Sky conditions: clear
Temperature: 87.1 F (30.6 C)
Heat index: 96.4 F (35.8 C):1
Dew Point: 75.0 F (23.9 C)
Relative Humidity: 67%
Pressure (altimeter): 29.99 in. Hg (1015 hPa)
ob: KGTR 150056Z 07004KT 10SM CLR 31/24 A2999 RMK AO2 SLP160 T03060239 PNO
cycle: 1

Station Type Date Time Source
KGTR TAF 2020/07/14 18:33 UTC NOAA

TAF KGTR 141730Z 1418/1518 36004KT P6SM FEW250

Example: see airport list